SARP Airport Information

Runway Information
Runway 1 Length 7218 ft width 98 ft
Elevation 429 ft Threshold 0 ft Heading 359
Runway 19 Length 7218 ft Width 98 ft
Elevation 376 ft Threshold 0 ft Heading 179
Airport Frequencies
Type TWR Name TWR/APP Frequency 120.1 MHZ
Airport Navaids
Type VOR-DME Name Posadas Frequency 114900 KHZ
Airport Weather Information & NOTAM
ADDS - METARS form results

(0115 UTC 26 February 2018)
 
METAR text: SARP 260100Z 14005KT 9999 FEW050CB 27/20 Q1013
Conditions at: SARP (POSADAS AIRPORT , AR) observed 0100 UTC 26 February 2018
Temperature: 27.0°C (81°F)
Dewpoint: 20.0°C (68°F) [RH = 66%]
Pressure (altimeter): 29.91 inches Hg (1013.0 mb)
Winds: from the SE (140 degrees) at 6 MPH (5 knots; 2.6 m/s)
Visibility: 6 or more miles (10+ km)
Ceiling: at least 12,000 feet AGL
Clouds: few clouds at 5000 feet AGL
Weather: no significant weather observed at this time